createdAt,value
2017-07-08T00:00:57.487Z,954.78
2017-07-08T00:01:57.486Z,954.8
2017-07-08T00:02:57.484Z,954.77
2017-07-08T00:03:57.481Z,954.76
2017-07-08T00:04:57.479Z,954.75
2017-07-08T00:05:57.478Z,954.78
2017-07-08T00:06:57.476Z,954.78
2017-07-08T00:07:57.474Z,954.74
2017-07-08T00:08:57.472Z,954.74
2017-07-08T00:09:57.473Z,954.73
2017-07-08T00:10:57.470Z,954.73
2017-07-08T00:11:57.466Z,954.75
2017-07-08T00:12:57.466Z,954.76
2017-07-08T00:13:57.464Z,954.73
2017-07-08T00:14:57.462Z,954.72
2017-07-08T00:15:57.461Z,954.71
2017-07-08T00:16:57.459Z,954.73
2017-07-08T00:17:57.629Z,954.71
2017-07-08T00:18:57.455Z,954.75
2017-07-08T00:19:57.453Z,954.76
2017-07-08T00:20:57.451Z,954.73
2017-07-08T00:21:57.448Z,954.78
2017-07-08T00:22:57.447Z,954.76
2017-07-08T00:23:57.446Z,954.77
2017-07-08T00:24:57.445Z,954.74
2017-07-08T00:25:57.443Z,954.76
2017-07-08T00:26:57.441Z,954.75
2017-07-08T00:27:57.439Z,954.76
2017-07-08T00:28:57.587Z,954.75
2017-07-08T00:29:57.435Z,954.74
2017-07-08T00:30:57.433Z,954.74
2017-07-08T00:31:57.431Z,954.74
2017-07-08T00:32:57.429Z,954.75
2017-07-08T00:33:57.426Z,954.76
2017-07-08T00:34:57.425Z,954.74
2017-07-08T00:35:57.424Z,954.73
2017-07-08T00:36:57.422Z,954.75
2017-07-08T00:37:57.420Z,954.72
2017-07-08T00:38:57.417Z,954.72
2017-07-08T00:39:57.567Z,954.7
2017-07-08T00:40:57.414Z,954.7
2017-07-08T00:41:57.411Z,954.71
2017-07-08T00:42:57.412Z,954.7
2017-07-08T00:43:57.409Z,954.68
2017-07-08T00:44:57.406Z,954.69
2017-07-08T00:45:57.404Z,954.66
2017-07-08T00:46:57.402Z,954.69
2017-07-08T00:47:57.400Z,954.63
2017-07-08T00:48:57.398Z,954.68
2017-07-08T00:49:57.396Z,954.68
2017-07-08T00:50:57.545Z,954.66
2017-07-08T00:51:57.391Z,954.69
2017-07-08T00:52:57.388Z,954.66
2017-07-08T00:53:57.387Z,954.67
2017-07-08T00:54:57.386Z,954.65
2017-07-08T00:55:57.383Z,954.67
2017-07-08T00:56:57.381Z,954.63
2017-07-08T00:57:57.380Z,954.62
2017-07-08T00:58:57.376Z,954.66
2017-07-08T00:59:57.376Z,954.63
2017-07-08T01:00:57.374Z,954.58
2017-07-08T01:01:57.373Z,954.64
2017-07-08T01:02:57.369Z,954.63
2017-07-08T01:03:57.367Z,954.64
2017-07-08T01:04:57.364Z,954.63
2017-07-08T01:05:57.363Z,954.63
2017-07-08T01:06:57.361Z,954.62
2017-07-08T01:07:57.360Z,954.62
2017-07-08T01:08:57.358Z,954.62
2017-07-08T01:09:57.355Z,954.58
2017-07-08T01:10:57.353Z,954.61
2017-07-08T01:11:57.351Z,954.57
2017-07-08T01:12:57.349Z,954.62
2017-07-08T01:13:57.347Z,954.62
2017-07-08T01:14:57.345Z,954.64
2017-07-08T01:15:57.343Z,954.63
2017-07-08T01:16:57.340Z,954.61
2017-07-08T01:17:57.338Z,954.6
2017-07-08T01:18:57.336Z,954.58
2017-07-08T01:19:57.334Z,954.62
2017-07-08T01:20:57.330Z,954.61
2017-07-08T01:21:57.329Z,954.6
2017-07-08T01:22:57.327Z,954.56
2017-07-08T01:23:57.325Z,954.54
2017-07-08T01:24:57.323Z,954.55
2017-07-08T01:25:57.320Z,954.51
2017-07-08T01:26:57.317Z,954.52
2017-07-08T01:27:57.337Z,954.5
2017-07-08T01:28:57.312Z,954.52
2017-07-08T01:29:57.310Z,954.52
2017-07-08T01:30:57.309Z,954.5
2017-07-08T01:31:57.305Z,954.51
2017-07-08T01:32:57.303Z,954.48
2017-07-08T01:33:57.301Z,954.54
2017-07-08T01:34:57.301Z,954.56
2017-07-08T01:35:57.297Z,954.56
2017-07-08T01:36:57.294Z,954.62
2017-07-08T01:37:57.295Z,954.59
2017-07-08T01:38:57.288Z,954.62
2017-07-08T01:39:57.287Z,954.65
2017-07-08T01:40:57.283Z,954.67
2017-07-08T01:41:57.281Z,954.68
2017-07-08T01:42:57.278Z,954.65
2017-07-08T01:43:57.276Z,954.63
2017-07-08T01:44:57.274Z,954.66
2017-07-08T01:45:57.272Z,954.62
2017-07-08T01:46:57.269Z,954.64
2017-07-08T01:47:57.268Z,954.63
2017-07-08T01:48:57.263Z,954.62
2017-07-08T01:49:57.260Z,954.6
2017-07-08T01:50:57.259Z,954.64
2017-07-08T01:51:57.257Z,954.65
2017-07-08T01:52:57.255Z,954.63
2017-07-08T01:53:57.254Z,954.64
2017-07-08T01:54:57.248Z,954.65
2017-07-08T01:55:57.247Z,954.66
2017-07-08T01:56:57.264Z,954.65
2017-07-08T01:57:57.241Z,954.67
2017-07-08T01:58:57.238Z,954.7
2017-07-08T01:59:57.236Z,954.7
2017-07-08T02:00:57.233Z,954.67
2017-07-08T02:01:57.230Z,954.7
2017-07-08T02:02:57.228Z,954.69
2017-07-08T02:03:57.277Z,954.66
2017-07-08T02:04:57.223Z,954.7
2017-07-08T02:05:57.220Z,954.66
2017-07-08T02:06:57.218Z,954.64
2017-07-08T02:07:57.214Z,954.68
2017-07-08T02:08:57.212Z,954.69
2017-07-08T02:09:57.211Z,954.64
2017-07-08T02:10:57.206Z,954.69
2017-07-08T02:11:57.203Z,954.68
2017-07-08T02:12:57.202Z,954.66
2017-07-08T02:13:57.199Z,954.68
2017-07-08T02:14:57.197Z,954.65
2017-07-08T02:15:57.195Z,954.66
2017-07-08T02:16:57.192Z,954.66
2017-07-08T02:17:57.190Z,954.63
2017-07-08T02:18:57.188Z,954.63
2017-07-08T02:19:57.184Z,954.64
2017-07-08T02:20:57.182Z,954.61
2017-07-08T02:21:57.180Z,954.62
2017-07-08T02:22:57.177Z,954.6
2017-07-08T02:23:57.175Z,954.58
2017-07-08T02:24:57.173Z,954.6
2017-07-08T02:25:57.170Z,954.6
2017-07-08T02:26:57.169Z,954.56
2017-07-08T02:27:57.164Z,954.59
2017-07-08T02:28:57.163Z,954.61
2017-07-08T02:29:57.260Z,954.58
2017-07-08T02:30:57.157Z,954.59
2017-07-08T02:31:57.156Z,954.62
2017-07-08T02:32:57.154Z,954.61
2017-07-08T02:33:57.160Z,954.6
2017-07-08T02:34:57.166Z,954.6
2017-07-08T02:35:57.147Z,954.61
2017-07-08T02:36:57.149Z,954.62
2017-07-08T02:37:57.140Z,954.6
2017-07-08T02:38:57.139Z,954.61
2017-07-08T02:39:57.137Z,954.59
2017-07-08T02:40:57.189Z,954.61
2017-07-08T02:41:57.133Z,954.62
2017-07-08T02:42:57.130Z,954.61
2017-07-08T02:43:57.127Z,954.55
2017-07-08T02:44:57.125Z,954.61
2017-07-08T02:45:57.122Z,954.58
2017-07-08T02:46:57.120Z,954.58
2017-07-08T02:47:57.119Z,954.56
2017-07-08T02:48:57.115Z,954.56
2017-07-08T02:49:57.113Z,954.56
2017-07-08T02:50:57.112Z,954.58
2017-07-08T02:51:57.260Z,954.6
2017-07-08T02:52:57.105Z,954.6
2017-07-08T02:53:57.103Z,954.61
2017-07-08T02:54:57.102Z,954.59
2017-07-08T02:55:57.098Z,954.61
2017-07-08T02:56:57.097Z,954.61
2017-07-08T02:57:57.094Z,954.61
2017-07-08T02:58:57.091Z,954.61
2017-07-08T02:59:57.089Z,954.59
2017-07-08T03:00:57.086Z,954.62
2017-07-08T03:01:57.085Z,954.6
2017-07-08T03:02:57.083Z,954.6
2017-07-08T03:03:57.079Z,954.58
2017-07-08T03:04:57.077Z,954.6
2017-07-08T03:05:57.074Z,954.58
2017-07-08T03:06:57.071Z,954.58
2017-07-08T03:07:57.070Z,954.55
2017-07-08T03:08:57.068Z,954.57
2017-07-08T03:09:57.078Z,954.55
2017-07-08T03:10:57.087Z,954.58
2017-07-08T03:11:57.060Z,954.57
2017-07-08T03:12:57.061Z,954.56
2017-07-08T03:13:57.130Z,954.55
2017-07-08T03:14:57.052Z,954.6
2017-07-08T03:15:57.050Z,954.6
2017-07-08T03:16:57.048Z,954.56
2017-07-08T03:17:57.097Z,954.54
2017-07-08T03:18:57.041Z,954.52
2017-07-08T03:19:57.039Z,954.44
2017-07-08T03:20:57.038Z,954.5
2017-07-08T03:21:57.033Z,954.42
2017-07-08T03:22:57.030Z,954.46
2017-07-08T03:23:57.048Z,954.49
2017-07-08T03:24:57.176Z,954.51
2017-07-08T03:25:57.022Z,954.47
2017-07-08T03:26:57.022Z,954.54
2017-07-08T03:27:57.018Z,954.52
2017-07-08T03:28:57.015Z,954.52
2017-07-08T03:29:57.015Z,954.5
2017-07-08T03:30:57.010Z,954.56
2017-07-08T03:31:57.008Z,954.56
2017-07-08T03:32:57.005Z,954.61
2017-07-08T03:33:57.004Z,954.59
2017-07-08T03:34:57.001Z,954.57
2017-07-08T03:35:57.152Z,954.6
2017-07-08T03:36:56.996Z,954.64
2017-07-08T03:37:56.994Z,954.64
2017-07-08T03:38:56.991Z,954.67
2017-07-08T03:39:56.989Z,954.61
2017-07-08T03:40:56.986Z,954.65
2017-07-08T03:41:56.985Z,954.67
2017-07-08T03:42:56.982Z,954.65
2017-07-08T03:43:56.981Z,954.7
2017-07-08T03:44:56.977Z,954.7
2017-07-08T03:45:56.974Z,954.75
2017-07-08T03:46:56.988Z,954.73
2017-07-08T03:47:56.971Z,954.73
2017-07-08T03:48:56.968Z,954.77
2017-07-08T03:49:56.966Z,954.74
2017-07-08T03:50:56.963Z,954.72
2017-07-08T03:51:56.960Z,954.7
2017-07-08T03:52:56.958Z,954.74
2017-07-08T03:53:56.974Z,954.72
2017-07-08T03:54:56.955Z,954.75
2017-07-08T03:55:56.952Z,954.77
2017-07-08T03:56:56.949Z,954.74
2017-07-08T03:57:56.946Z,954.75
2017-07-08T03:58:56.945Z,954.8
2017-07-08T03:59:56.944Z,954.79
2017-07-08T04:00:56.941Z,954.75
2017-07-08T04:01:56.943Z,954.73
2017-07-08T04:02:56.937Z,954.72
2017-07-08T04:03:56.955Z,954.77
2017-07-08T04:04:56.933Z,954.75
2017-07-08T04:05:56.930Z,954.8
2017-07-08T04:06:56.928Z,954.79
2017-07-08T04:07:56.927Z,954.8
2017-07-08T04:08:56.924Z,954.81
2017-07-08T04:09:56.921Z,954.8
2017-07-08T04:10:56.920Z,954.81
2017-07-08T04:11:56.918Z,954.8
2017-07-08T04:12:56.914Z,954.82
2017-07-08T04:13:56.913Z,954.77
2017-07-08T04:14:56.912Z,954.81
2017-07-08T04:15:56.911Z,954.83
2017-07-08T04:16:56.910Z,954.84
2017-07-08T04:17:56.907Z,954.85
2017-07-08T04:18:56.907Z,954.82
2017-07-08T04:19:57.052Z,954.84
2017-07-08T04:20:56.904Z,954.83
2017-07-08T04:21:56.900Z,954.81
2017-07-08T04:22:56.899Z,954.84
2017-07-08T04:23:56.896Z,954.83
2017-07-08T04:24:56.895Z,954.86
2017-07-08T04:25:56.892Z,954.89
2017-07-08T04:26:56.891Z,954.86
2017-07-08T04:27:56.890Z,954.81
2017-07-08T04:28:56.889Z,954.86
2017-07-08T04:29:56.888Z,954.83
2017-07-08T04:30:56.883Z,954.84
2017-07-08T04:31:56.883Z,954.79
2017-07-08T04:32:56.881Z,954.84
2017-07-08T04:33:56.879Z,954.77
2017-07-08T04:34:56.878Z,954.79
2017-07-08T04:35:56.876Z,954.8
2017-07-08T04:36:56.875Z,954.81
2017-07-08T04:37:56.873Z,954.81
2017-07-08T04:38:56.871Z,954.81
2017-07-08T04:39:56.873Z,954.87
2017-07-08T04:40:56.879Z,954.81
2017-07-08T04:41:57.016Z,954.82
2017-07-08T04:42:56.864Z,954.83
2017-07-08T04:43:56.862Z,954.84
2017-07-08T04:44:56.861Z,954.88
2017-07-08T04:45:56.860Z,954.87
2017-07-08T04:46:56.857Z,954.91
2017-07-08T04:47:56.856Z,954.86
2017-07-08T04:48:56.857Z,954.89
2017-07-08T04:49:56.854Z,954.86
2017-07-08T04:50:56.852Z,954.85
2017-07-08T04:51:56.853Z,954.84
2017-07-08T04:52:57.299Z,954.8
2017-07-08T04:53:56.848Z,954.84
2017-07-08T04:54:56.847Z,954.86
2017-07-08T04:55:56.852Z,954.84
2017-07-08T04:56:56.858Z,954.84
2017-07-08T04:57:56.862Z,954.89
2017-07-08T04:58:56.842Z,954.85
2017-07-08T04:59:56.839Z,954.86
2017-07-08T05:00:56.838Z,954.9
2017-07-08T05:01:56.841Z,954.9
2017-07-08T05:02:56.837Z,954.87
2017-07-08T05:03:56.836Z,954.89
2017-07-08T05:04:56.833Z,954.84
2017-07-08T05:05:56.853Z,954.82
2017-07-08T05:06:56.832Z,954.79
2017-07-08T05:07:56.832Z,954.77
2017-07-08T05:08:56.979Z,954.77
2017-07-08T05:09:56.828Z,954.73
2017-07-08T05:10:56.827Z,954.75
2017-07-08T05:11:56.826Z,954.73
2017-07-08T05:12:56.824Z,954.74
2017-07-08T05:13:56.823Z,954.73
2017-07-08T05:14:56.823Z,954.72
2017-07-08T05:15:56.822Z,954.69
2017-07-08T05:16:56.820Z,954.7
2017-07-08T05:17:56.821Z,954.62
2017-07-08T05:18:56.819Z,954.64
2017-07-08T05:19:56.818Z,954.61
2017-07-08T05:20:56.817Z,954.61
2017-07-08T05:21:56.814Z,954.6
2017-07-08T05:22:56.814Z,954.65
2017-07-08T05:23:56.814Z,954.66
2017-07-08T05:24:56.815Z,954.63
2017-07-08T05:25:56.812Z,954.65
2017-07-08T05:26:56.810Z,954.67
2017-07-08T05:27:56.809Z,954.67
2017-07-08T05:28:56.809Z,954.67
2017-07-08T05:29:56.808Z,954.72
2017-07-08T05:30:56.959Z,954.71
2017-07-08T05:31:56.807Z,954.75
2017-07-08T05:32:56.805Z,954.77
2017-07-08T05:33:56.805Z,954.73
2017-07-08T05:34:56.857Z,954.72
2017-07-08T05:35:56.804Z,954.73
2017-07-08T05:36:56.802Z,954.68
2017-07-08T05:37:56.800Z,954.68
2017-07-08T05:38:56.814Z,954.64
2017-07-08T05:39:56.801Z,954.67
2017-07-08T05:40:56.799Z,954.65
2017-07-08T05:41:56.799Z,954.6
2017-07-08T05:42:56.797Z,954.59
2017-07-08T05:43:56.797Z,954.58
2017-07-08T05:44:56.796Z,954.58
2017-07-08T05:45:56.795Z,954.54
2017-07-08T05:46:56.797Z,954.56
2017-07-08T05:47:56.794Z,954.57
2017-07-08T05:48:56.795Z,954.52
2017-07-08T05:49:56.796Z,954.47
2017-07-08T05:50:56.800Z,954.47
2017-07-08T05:51:56.826Z,954.45
2017-07-08T05:52:56.794Z,954.53
2017-07-08T05:53:56.797Z,954.53
2017-07-08T05:54:56.792Z,954.57
2017-07-08T05:55:56.814Z,954.59
2017-07-08T05:56:56.793Z,954.64
2017-07-08T05:57:56.793Z,954.61
2017-07-08T05:58:56.792Z,954.62
2017-07-08T05:59:56.791Z,954.64
2017-07-08T06:00:56.791Z,954.62
2017-07-08T06:01:56.790Z,954.62
2017-07-08T06:02:56.794Z,954.62
2017-07-08T06:03:56.791Z,954.67
2017-07-08T06:04:56.791Z,954.66
2017-07-08T06:05:56.788Z,954.7
2017-07-08T06:06:56.812Z,954.7
2017-07-08T06:07:56.790Z,954.73
2017-07-08T06:08:56.791Z,954.78
2017-07-08T06:09:56.790Z,954.74
2017-07-08T06:10:56.793Z,954.77
2017-07-08T06:11:56.803Z,954.74
2017-07-08T06:12:56.790Z,954.75
2017-07-08T06:13:56.791Z,954.76
2017-07-08T06:14:56.789Z,954.69
2017-07-08T06:15:56.791Z,954.74
2017-07-08T06:16:56.807Z,954.74
2017-07-08T06:17:56.789Z,954.73
2017-07-08T06:18:56.788Z,954.77
2017-07-08T06:19:56.789Z,954.77
2017-07-08T06:20:56.789Z,954.78
2017-07-08T06:21:56.788Z,954.78
2017-07-08T06:22:56.791Z,954.83
2017-07-08T06:23:56.789Z,954.78
2017-07-08T06:24:56.789Z,954.8
2017-07-08T06:25:56.790Z,954.81
2017-07-08T06:26:56.790Z,954.78
2017-07-08T06:27:56.789Z,954.82
2017-07-08T06:28:56.790Z,954.81
2017-07-08T06:29:56.794Z,954.84
2017-07-08T06:30:56.791Z,954.85
2017-07-08T06:31:56.790Z,954.85
2017-07-08T06:32:56.790Z,954.83
2017-07-08T06:33:56.791Z,954.87
2017-07-08T06:34:56.791Z,954.83
2017-07-08T06:35:56.816Z,954.85
2017-07-08T06:36:56.792Z,954.83
2017-07-08T06:37:56.796Z,954.84
2017-07-08T06:38:56.792Z,954.85
2017-07-08T06:39:56.793Z,954.84
2017-07-08T06:40:56.792Z,954.88
2017-07-08T06:41:56.799Z,954.88
2017-07-08T06:42:56.818Z,954.86
2017-07-08T06:43:56.794Z,954.93
2017-07-08T06:44:56.813Z,954.92
2017-07-08T06:45:56.795Z,954.94
2017-07-08T06:46:56.814Z,954.92
2017-07-08T06:47:56.797Z,954.96
2017-07-08T06:48:56.798Z,954.97
2017-07-08T06:49:56.800Z,954.96
2017-07-08T06:50:56.801Z,954.99
2017-07-08T06:51:56.801Z,955
2017-07-08T06:52:56.803Z,955.07
2017-07-08T06:53:56.805Z,955.02
2017-07-08T06:54:56.808Z,955.07
2017-07-08T06:55:56.810Z,955.06
2017-07-08T06:56:56.811Z,955.01
2017-07-08T06:57:56.816Z,955.08
2017-07-08T06:58:56.819Z,955.08
2017-07-08T06:59:56.824Z,955.01
2017-07-08T07:00:56.826Z,955.04
2017-07-08T07:01:56.829Z,955.02
2017-07-08T07:02:56.835Z,955.06
2017-07-08T07:03:56.839Z,955.03
2017-07-08T07:04:56.843Z,955.02
2017-07-08T07:05:56.847Z,955.02
2017-07-08T07:06:56.853Z,955.01
2017-07-08T07:07:56.857Z,955.04
2017-07-08T07:08:56.860Z,955.04
2017-07-08T07:09:56.868Z,955.1
2017-07-08T07:10:56.872Z,955.03
2017-07-08T07:11:56.899Z,955.03
2017-07-08T07:12:56.884Z,954.98
2017-07-08T07:13:56.890Z,954.98
2017-07-08T07:14:56.897Z,955.04
2017-07-08T07:15:56.901Z,954.97
2017-07-08T07:16:56.909Z,955.07
2017-07-08T07:17:56.914Z,955.08
2017-07-08T07:18:56.942Z,955.09
2017-07-08T07:19:56.927Z,955.07
2017-07-08T07:20:56.934Z,955.09
2017-07-08T07:21:56.942Z,955
2017-07-08T07:22:56.948Z,954.98
2017-07-08T07:23:56.955Z,955.01
2017-07-08T07:24:56.963Z,955.03
2017-07-08T07:25:56.970Z,955.01
2017-07-08T07:26:56.977Z,955.02
2017-07-08T07:27:56.984Z,955.06
2017-07-08T07:28:56.992Z,955.17
2017-07-08T07:29:56.998Z,955.17
2017-07-08T07:30:57.005Z,955.2
2017-07-08T07:31:57.012Z,955.22
2017-07-08T07:32:57.017Z,955.13
2017-07-08T07:33:57.024Z,955.26
2017-07-08T07:34:57.033Z,955.06
2017-07-08T07:35:57.038Z,955.06
2017-07-08T07:36:57.045Z,955.09
2017-07-08T07:37:57.052Z,955.02
2017-07-08T07:38:57.061Z,955.04
2017-07-08T07:39:57.069Z,955.04
2017-07-08T07:40:57.072Z,955
2017-07-08T07:41:57.081Z,954.96
2017-07-08T07:42:57.086Z,954.95
2017-07-08T07:43:57.091Z,954.91
2017-07-08T07:44:57.097Z,954.97
2017-07-08T07:45:57.104Z,954.97
2017-07-08T07:46:57.111Z,954.96
2017-07-08T07:47:57.115Z,954.92
2017-07-08T07:48:57.123Z,954.93
2017-07-08T07:49:57.133Z,954.95
2017-07-08T07:50:57.133Z,954.91
2017-07-08T07:51:57.143Z,954.92
2017-07-08T07:52:57.142Z,954.9
2017-07-08T07:53:57.147Z,954.96
2017-07-08T07:54:57.151Z,954.95
2017-07-08T07:55:57.157Z,954.97
2017-07-08T07:56:57.162Z,954.98
2017-07-08T07:57:57.169Z,955
2017-07-08T07:58:57.170Z,954.95
2017-07-08T07:59:57.175Z,954.98
2017-07-08T08:00:57.179Z,954.98
2017-07-08T08:01:57.184Z,955
2017-07-08T08:02:57.187Z,954.99
2017-07-08T08:03:57.192Z,955.04
2017-07-08T08:04:57.195Z,955.07
2017-07-08T08:05:57.200Z,955.05
2017-07-08T08:06:57.203Z,955.04
2017-07-08T08:07:57.207Z,955.07
2017-07-08T08:08:57.211Z,955.05
2017-07-08T08:09:57.217Z,955.08
2017-07-08T08:10:57.224Z,955.1
2017-07-08T08:11:57.224Z,955.12
2017-07-08T08:12:57.228Z,955.09
2017-07-08T08:13:57.230Z,955.08
2017-07-08T08:14:57.235Z,955.08
2017-07-08T08:15:57.259Z,955.05
2017-07-08T08:16:57.243Z,955.09
2017-07-08T08:17:57.256Z,955.06
2017-07-08T08:18:57.250Z,955.12
2017-07-08T08:19:57.256Z,955.12
2017-07-08T08:20:57.258Z,955.08
2017-07-08T08:21:57.261Z,955.12
2017-07-08T08:22:57.265Z,955.08
2017-07-08T08:23:57.271Z,955.1
2017-07-08T08:24:57.275Z,955.06
2017-07-08T08:25:57.279Z,955.1
2017-07-08T08:26:57.284Z,955.05
2017-07-08T08:27:57.288Z,955.08
2017-07-08T08:28:57.292Z,955.12
2017-07-08T08:29:57.296Z,955.1
2017-07-08T08:30:57.301Z,955.15
2017-07-08T08:31:57.305Z,955.13
2017-07-08T08:32:57.310Z,955.1
2017-07-08T08:33:57.314Z,955.15
2017-07-08T08:34:57.319Z,955.19
2017-07-08T08:35:57.324Z,955.17
2017-07-08T08:36:57.329Z,955.17
2017-07-08T08:37:57.332Z,955.2
2017-07-08T08:38:57.338Z,955.2
2017-07-08T08:39:57.341Z,955.2
2017-07-08T08:40:57.346Z,955.21
2017-07-08T08:41:57.351Z,955.23
2017-07-08T08:42:57.354Z,955.18
2017-07-08T08:43:57.359Z,955.17
2017-07-08T08:44:57.363Z,955.11
2017-07-08T08:45:57.368Z,955.11
2017-07-08T08:46:57.371Z,955.14
2017-07-08T08:47:57.376Z,955.12
2017-07-08T08:48:57.379Z,955.14
2017-07-08T08:49:57.386Z,955.13
2017-07-08T08:50:57.389Z,955.11
2017-07-08T08:51:57.393Z,955.12
2017-07-08T08:52:57.398Z,955.1
2017-07-08T08:53:57.402Z,955.13
2017-07-08T08:54:57.405Z,955.2
2017-07-08T08:55:57.411Z,955.17
2017-07-08T08:56:57.416Z,955.18
2017-07-08T08:57:57.420Z,955.16
2017-07-08T08:58:57.425Z,955.2
2017-07-08T08:59:57.428Z,955.19
2017-07-08T09:00:57.432Z,955.21
2017-07-08T09:01:57.437Z,955.22
2017-07-08T09:02:57.441Z,955.25
2017-07-08T09:03:57.446Z,955.21
2017-07-08T09:04:57.450Z,955.25
2017-07-08T09:05:57.454Z,955.21
2017-07-08T09:06:57.458Z,955.23
2017-07-08T09:07:57.462Z,955.27
2017-07-08T09:08:57.465Z,955.23
2017-07-08T09:09:57.469Z,955.3
2017-07-08T09:10:57.474Z,955.26
2017-07-08T09:11:57.482Z,955.29
2017-07-08T09:12:57.482Z,955.29
2017-07-08T09:13:57.486Z,955.23
2017-07-08T09:14:57.490Z,955.23
2017-07-08T09:15:57.494Z,955.22
2017-07-08T09:16:57.499Z,955.22
2017-07-08T09:17:57.501Z,955.21
2017-07-08T09:18:57.507Z,955.24
2017-07-08T09:19:57.510Z,955.28
2017-07-08T09:20:57.513Z,955.22
2017-07-08T09:21:57.518Z,955.28
2017-07-08T09:22:57.520Z,955.26
2017-07-08T09:23:57.525Z,955.15
2017-07-08T09:24:57.530Z,955.25
2017-07-08T09:25:57.534Z,955.2
2017-07-08T09:26:57.537Z,955.16
2017-07-08T09:27:57.541Z,955.2
2017-07-08T09:28:57.547Z,955.17
2017-07-08T09:29:57.552Z,955.21
2017-07-08T09:30:57.554Z,955.2
2017-07-08T09:31:57.561Z,955.17
2017-07-08T09:32:57.562Z,955.18
2017-07-08T09:33:57.565Z,955.17
2017-07-08T09:34:57.569Z,955.21
2017-07-08T09:35:57.574Z,955.25
2017-07-08T09:36:57.578Z,955.23
2017-07-08T09:37:57.580Z,955.21
2017-07-08T09:38:57.584Z,955.24
2017-07-08T09:39:57.588Z,955.18
2017-07-08T09:40:57.593Z,955.18
2017-07-08T09:41:57.595Z,955.21
2017-07-08T09:42:57.600Z,955.24
2017-07-08T09:43:57.604Z,955.26
2017-07-08T09:44:57.606Z,955.25
2017-07-08T09:45:57.630Z,955.26
2017-07-08T09:46:57.614Z,955.24
2017-07-08T09:47:57.620Z,955.26
2017-07-08T09:48:57.622Z,955.24
2017-07-08T09:49:57.628Z,955.25
2017-07-08T09:50:57.631Z,955.25
2017-07-08T09:51:57.634Z,955.26
2017-07-08T09:52:57.638Z,955.26
2017-07-08T09:53:57.649Z,955.28
2017-07-08T09:54:57.645Z,955.26
2017-07-08T09:55:57.646Z,955.27
2017-07-08T09:56:57.650Z,955.26
2017-07-08T09:57:57.655Z,955.25
2017-07-08T09:58:57.657Z,955.23
2017-07-08T09:59:57.685Z,955.22
2017-07-08T10:00:57.665Z,955.22
2017-07-08T10:01:57.668Z,955.22
2017-07-08T10:02:57.672Z,955.27
2017-07-08T10:03:57.674Z,955.22
2017-07-08T10:04:57.678Z,955.2
2017-07-08T10:05:57.685Z,955.2
2017-07-08T10:06:57.692Z,955.17
2017-07-08T10:07:57.701Z,955.19
2017-07-08T10:08:57.695Z,955.19
2017-07-08T10:09:57.698Z,955.2
2017-07-08T10:10:57.700Z,955.19
2017-07-08T10:11:57.704Z,955.19
2017-07-08T10:12:57.708Z,955.22
2017-07-08T10:13:57.712Z,955.23
2017-07-08T10:14:57.715Z,955.22
2017-07-08T10:15:57.719Z,955.21
2017-07-08T10:16:57.722Z,955.19
2017-07-08T10:17:57.726Z,955.14
2017-07-08T10:18:57.730Z,955.15
2017-07-08T10:19:57.734Z,955.12
2017-07-08T10:20:57.737Z,955.14
2017-07-08T10:21:57.740Z,955.1
2017-07-08T10:22:57.751Z,955.08
2017-07-08T10:23:57.749Z,955.06
2017-07-08T10:24:57.754Z,955
2017-07-08T10:25:57.771Z,954.95
2017-07-08T10:26:57.765Z,954.96
2017-07-08T10:27:57.782Z,954.96
2017-07-08T10:28:57.769Z,954.93
2017-07-08T10:29:57.775Z,954.97
2017-07-08T10:30:57.780Z,954.95
2017-07-08T10:31:57.783Z,954.96
2017-07-08T10:32:57.787Z,954.94
2017-07-08T10:33:57.792Z,954.89
2017-07-08T10:34:57.796Z,954.82
2017-07-08T10:35:57.803Z,954.79
2017-07-08T10:36:57.807Z,954.78
2017-07-08T10:37:57.810Z,954.8
2017-07-08T10:38:57.814Z,954.81
2017-07-08T10:39:57.828Z,954.89
2017-07-08T10:40:57.822Z,955.01
2017-07-08T10:41:57.827Z,955.07
2017-07-08T10:42:57.830Z,955.06
2017-07-08T10:43:57.834Z,955.07
2017-07-08T10:44:57.852Z,955.12
2017-07-08T10:45:57.843Z,955.03
2017-07-08T10:46:57.867Z,955.06
2017-07-08T10:47:57.850Z,955.05
2017-07-08T10:48:57.854Z,955.03
2017-07-08T10:49:57.856Z,955.03
2017-07-08T10:50:57.860Z,955.03
2017-07-08T10:51:57.870Z,955.02
2017-07-08T10:52:57.868Z,955.02
2017-07-08T10:53:57.872Z,955.07
2017-07-08T10:54:57.873Z,955.1
2017-07-08T10:55:57.877Z,955.1
2017-07-08T10:56:57.881Z,955.16
2017-07-08T10:57:57.882Z,955.2
2017-07-08T10:58:57.885Z,955.21
2017-07-08T10:59:57.888Z,955.29
2017-07-08T11:00:57.891Z,955.25
2017-07-08T11:01:57.892Z,955.2
2017-07-08T11:02:57.946Z,955.16
2017-07-08T11:03:57.896Z,955.2
2017-07-08T11:04:57.898Z,955.18
2017-07-08T11:05:57.900Z,955.17
2017-07-08T11:06:57.906Z,955.17
2017-07-08T11:07:57.904Z,955.13
2017-07-08T11:08:57.903Z,955.14
2017-07-08T11:09:57.906Z,955.12
2017-07-08T11:10:57.909Z,955.15
2017-07-08T11:11:57.911Z,955.16
2017-07-08T11:12:57.910Z,955.2
2017-07-08T11:13:57.913Z,955.19
2017-07-08T11:14:57.914Z,955.16
2017-07-08T11:15:57.918Z,955.11
2017-07-08T11:16:57.917Z,955.11
2017-07-08T11:17:57.923Z,955.13
2017-07-08T11:18:57.922Z,955.11
2017-07-08T11:19:57.923Z,955.14
2017-07-08T11:20:57.924Z,955.17
2017-07-08T11:21:57.926Z,955.19
2017-07-08T11:22:57.927Z,955.24
2017-07-08T11:23:57.929Z,955.22
2017-07-08T11:24:57.931Z,955.22
2017-07-08T11:25:57.933Z,955.22
2017-07-08T11:26:57.936Z,955.24
2017-07-08T11:27:57.944Z,955.25
2017-07-08T11:28:57.937Z,955.23
2017-07-08T11:29:57.939Z,955.24
2017-07-08T11:30:57.942Z,955.23
2017-07-08T11:31:57.944Z,955.27
2017-07-08T11:32:57.946Z,955.24
2017-07-08T11:33:57.948Z,955.24
2017-07-08T11:34:57.950Z,955.2
2017-07-08T11:35:57.959Z,955.21
2017-07-08T11:36:57.954Z,955.2
2017-07-08T11:37:57.955Z,955.19
2017-07-08T11:38:57.959Z,955.18
2017-07-08T11:39:57.960Z,955.2
2017-07-08T11:40:57.963Z,955.18
2017-07-08T11:41:57.964Z,955.18
2017-07-08T11:42:57.967Z,955.15
2017-07-08T11:43:57.968Z,955.18
2017-07-08T11:44:57.972Z,955.15
2017-07-08T11:45:57.974Z,955.13
2017-07-08T11:46:57.976Z,955.17
2017-07-08T11:47:57.979Z,955.14
2017-07-08T11:48:57.983Z,955.07
2017-07-08T11:49:57.985Z,955.07
2017-07-08T11:50:57.987Z,955.07
2017-07-08T11:51:57.991Z,955.03
2017-07-08T11:52:58.009Z,955.02
2017-07-08T11:53:57.996Z,955
2017-07-08T11:54:58.000Z,955.02
2017-07-08T11:55:58.010Z,955.02
2017-07-08T11:56:58.006Z,955
2017-07-08T11:57:58.024Z,955.03
2017-07-08T11:58:58.013Z,955
2017-07-08T11:59:58.016Z,955.03
2017-07-08T12:00:58.021Z,955.02
2017-07-08T12:01:58.023Z,955.01
2017-07-08T12:02:58.028Z,954.98
2017-07-08T12:03:58.031Z,954.96
2017-07-08T12:04:58.033Z,955
2017-07-08T12:05:58.039Z,954.98
2017-07-08T12:06:58.042Z,954.98
2017-07-08T12:07:58.044Z,954.99
2017-07-08T12:08:58.058Z,954.99
2017-07-08T12:09:58.052Z,954.93
2017-07-08T12:10:58.057Z,954.9
2017-07-08T12:11:58.075Z,954.94
2017-07-08T12:12:58.132Z,954.92
2017-07-08T12:13:58.070Z,954.92
2017-07-08T12:14:58.084Z,954.93
2017-07-08T12:15:58.077Z,954.95
2017-07-08T12:16:58.080Z,954.93
2017-07-08T12:17:58.084Z,954.89
2017-07-08T12:18:58.086Z,954.85
2017-07-08T12:19:58.091Z,954.83
2017-07-08T12:20:58.095Z,954.88
2017-07-08T12:21:58.100Z,954.87
2017-07-08T12:22:58.099Z,954.88
2017-07-08T12:23:58.104Z,954.87
2017-07-08T12:24:58.108Z,954.91
2017-07-08T12:25:58.111Z,954.93
2017-07-08T12:26:58.114Z,954.95
2017-07-08T12:27:58.118Z,954.96
2017-07-08T12:28:58.121Z,954.92
2017-07-08T12:29:58.125Z,954.91
2017-07-08T12:30:58.130Z,954.91
2017-07-08T12:31:58.131Z,954.89